Time,TemperatureF,DewpointF,PressureIn,WindDirection,WindDirectionDegrees,WindSpeedMPH,WindSpeedGustMPH,Humidity,HourlyPrecipIn,Conditions,Clouds,dailyrainin,SoftwareType,DateUTC
2013-01-25 00:09:00,10.8,0.0,30.35,NW,316,4.0,8.0,62,0.00,,,0.00,weatherlink.com 1.10,2013-01-25 05:09:00,
2013-01-25 00:24:00,10.9,0.0,30.35,NW,310,2.0,5.0,62,0.00,,,0.00,weatherlink.com 1.10,2013-01-25 05:24:00,
2013-01-25 00:39:00,10.8,0.0,30.35,North,360,4.0,7.0,63,0.00,,,0.00,weatherlink.com 1.10,2013-01-25 05:39:00,
2013-01-25 00:55:00,10.5,1.0,30.35,NE,43,0.0,9.0,64,0.00,,,0.00,weatherlink.com 1.10,2013-01-25 05:55:00,
2013-01-25 01:10:00,10.1,0.0,30.35,WNW,300,2.0,5.0,64,0.00,,,0.00,weatherlink.com 1.10,2013-01-25 06:10:00,
2013-01-25 01:25:00,10.0,0.0,30.35,WNW,301,0.0,2.0,64,0.00,,,0.00,weatherlink.com 1.10,2013-01-25 06:25:00,
2013-01-25 01:40:00,8.5,0.0,30.34,WNW,301,0.0,2.0,67,0.00,,,0.00,weatherlink.com 1.10,2013-01-25 06:40:00,
2013-01-25 01:55:00,8.0,0.0,30.36,WNW,301,1.0,2.0,69,0.00,,,0.00,weatherlink.com 1.10,2013-01-25 06:55:00,
2013-01-25 02:10:00,7.7,0.0,30.36,WNW,301,1.0,2.0,70,0.00,,,0.00,weatherlink.com 1.10,2013-01-25 07:10:00,
2013-01-25 02:25:00,7.8,0.0,30.37,WNW,301,1.0,1.0,69,0.00,,,0.00,weatherlink.com 1.10,2013-01-25 07:25:00,
2013-01-25 02:40:00,7.7,0.0,30.37,WNW,301,0.0,2.0,71,0.00,,,0.00,weatherlink.com 1.10,2013-01-25 07:40:00,
2013-01-25 02:55:00,6.3,0.0,30.37,SSW,192,0.0,5.0,74,0.00,,,0.00,weatherlink.com 1.10,2013-01-25 07:55:00,
2013-01-25 03:10:00,7.3,0.0,30.36,SSW,192,0.0,2.0,73,0.00,,,0.00,weatherlink.com 1.10,2013-01-25 08:10:00,
2013-01-25 03:25:00,7.1,0.0,30.36,SSW,192,0.0,1.0,73,0.00,,,0.00,weatherlink.com 1.10,2013-01-25 08:25:00,
2013-01-25 03:40:00,7.5,0.0,30.36,SSW,192,0.0,2.0,72,0.00,,,0.00,weatherlink.com 1.10,2013-01-25 08:40:00,
2013-01-25 03:55:00,7.1,0.0,30.36,SSW,192,0.0,2.0,73,0.00,,,0.00,weatherlink.com 1.10,2013-01-25 08:55:00,
2013-01-25 04:11:00,8.1,1.0,30.36,ENE,67,2.0,4.0,72,0.00,,,0.00,weatherlink.com 1.10,2013-01-25 09:11:00,
2013-01-25 04:26:00,8.1,1.0,30.36,East,83,1.0,5.0,73,0.00,,,0.00,weatherlink.com 1.10,2013-01-25 09:26:00,
2013-01-25 04:41:00,8.3,1.0,30.36,ENE,77,0.0,2.0,73,0.00,,,0.00,weatherlink.com 1.10,2013-01-25 09:41:00,
2013-01-25 04:56:00,7.8,1.0,30.36,East,91,0.0,1.0,75,0.00,,,0.00,weatherlink.com 1.10,2013-01-25 09:56:00,
2013-01-25 05:11:00,7.5,1.0,30.37,East,91,0.0,1.0,76,0.00,,,0.00,weatherlink.com 1.10,2013-01-25 10:11:00,
2013-01-25 05:26:00,7.2,1.0,30.37,East,91,0.0,2.0,76,0.00,,,0.00,weatherlink.com 1.10,2013-01-25 10:26:00,
2013-01-25 05:41:00,7.0,2.0,30.37,East,91,0.0,1.0,78,0.00,,,0.00,weatherlink.com 1.10,2013-01-25 10:41:00,
2013-01-25 05:56:00,6.7,1.0,30.37,East,91,1.0,2.0,77,0.00,,,0.00,weatherlink.com 1.10,2013-01-25 10:56:00,
2013-01-25 06:11:00,7.0,1.0,30.37,ENE,70,0.0,3.0,77,0.00,,,0.00,weatherlink.com 1.10,2013-01-25 11:11:00,
2013-01-25 06:26:00,7.2,1.0,30.37,SE,126,1.0,4.0,76,0.00,,,0.00,weatherlink.com 1.10,2013-01-25 11:26:00,
2013-01-25 06:41:00,6.6,1.0,30.38,SE,126,0.0,1.0,77,0.00,,,0.00,weatherlink.com 1.10,2013-01-25 11:41:00,
2013-01-25 06:56:00,6.4,1.0,30.39,SE,126,0.0,0.0,78,0.00,,,0.00,weatherlink.com 1.10,2013-01-25 11:56:00,
2013-01-25 07:11:00,6.5,1.0,30.38,SE,126,0.0,2.0,78,0.00,,,0.00,weatherlink.com 1.10,2013-01-25 12:11:00,
2013-01-25 07:26:00,7.0,1.0,30.39,SE,126,1.0,3.0,77,0.00,,,0.00,weatherlink.com 1.10,2013-01-25 12:26:00,
2013-01-25 07:41:00,7.4,1.0,30.39,SE,126,0.0,3.0,76,0.00,,,0.00,weatherlink.com 1.10,2013-01-25 12:41:00,
2013-01-25 07:56:00,7.6,2.0,30.39,SE,126,1.0,3.0,77,0.00,,,0.00,weatherlink.com 1.10,2013-01-25 12:56:00,
2013-01-25 08:11:00,7.7,2.0,30.38,ESE,103,0.0,5.0,76,0.00,,,0.00,weatherlink.com 1.10,2013-01-25 13:11:00,
2013-01-25 08:26:00,8.1,2.0,30.38,ENE,62,3.0,4.0,75,0.00,,,0.00,weatherlink.com 1.10,2013-01-25 13:26:00,
2013-01-25 08:41:00,8.5,2.0,30.39,ENE,78,1.0,7.0,74,0.00,,,0.00,weatherlink.com 1.10,2013-01-25 13:41:00,
2013-01-25 08:56:00,8.8,2.0,30.38,NE,36,5.0,7.0,74,0.00,,,0.00,weatherlink.com 1.10,2013-01-25 13:56:00,
2013-01-25 09:11:00,9.1,2.0,30.38,NE,36,0.0,6.0,73,0.00,,,0.00,weatherlink.com 1.10,2013-01-25 14:11:00,
2013-01-25 09:26:00,9.4,2.0,30.38,ENE,61,2.0,8.0,73,0.00,,,0.00,weatherlink.com 1.10,2013-01-25 14:26:00,
2013-01-25 09:41:00,10.2,3.0,30.38,NE,34,2.0,7.0,72,0.00,,,0.00,weatherlink.com 1.10,2013-01-25 14:41:00,
2013-01-25 09:56:00,11.2,4.0,30.38,NE,34,0.0,3.0,71,0.00,,,0.00,weatherlink.com 1.10,2013-01-25 14:56:00,
2013-01-25 10:11:00,11.7,3.0,30.39,NNE,13,1.0,5.0,68,0.00,,,0.00,weatherlink.com 1.10,2013-01-25 15:11:00,
2013-01-25 10:26:00,12.4,4.0,30.38,NNE,20,1.0,4.0,69,0.00,,,0.00,weatherlink.com 1.10,2013-01-25 15:26:00,
2013-01-25 10:42:00,13.4,4.0,30.38,NNW,330,2.0,7.0,66,0.00,,,0.00,weatherlink.com 1.10,2013-01-25 15:42:00,
2013-01-25 10:57:00,13.4,4.0,30.37,North,5,3.0,5.0,65,0.00,,,0.00,weatherlink.com 1.10,2013-01-25 15:57:00,
2013-01-25 11:12:00,13.8,3.0,30.34,ENE,57,1.0,6.0,63,0.00,,,0.00,weatherlink.com 1.10,2013-01-25 16:12:00,
2013-01-25 11:27:00,14.2,4.0,30.33,ENE,77,2.0,6.0,63,0.00,,,0.00,weatherlink.com 1.10,2013-01-25 16:27:00,
2013-01-25 11:42:00,14.6,4.0,30.33,West,259,3.0,7.0,62,0.00,,,0.00,weatherlink.com 1.10,2013-01-25 16:42:00,
2013-01-25 11:57:00,15.5,3.0,30.31,WSW,240,3.0,6.0,59,0.00,,,0.00,weatherlink.com 1.10,2013-01-25 16:57:00,
2013-01-25 12:12:00,16.0,3.0,30.29,NNW,327,0.0,4.0,57,0.00,,,0.00,weatherlink.com 1.10,2013-01-25 17:12:00,
2013-01-25 12:27:00,16.6,3.0,30.28,WNW,293,3.0,5.0,55,0.00,,,0.00,weatherlink.com 1.10,2013-01-25 17:27:00,
2013-01-25 12:42:00,16.9,4.0,30.27,NNE,17,0.0,3.0,56,0.00,,,0.00,weatherlink.com 1.10,2013-01-25 17:42:00,
2013-01-25 12:57:00,17.4,4.0,30.27,NNE,15,3.0,4.0,55,0.00,,,0.00,weatherlink.com 1.10,2013-01-25 17:57:00,
2013-01-25 13:12:00,17.1,2.0,30.25,WNW,298,1.0,5.0,52,0.00,,,0.00,weatherlink.com 1.10,2013-01-25 18:12:00,
2013-01-25 13:27:00,17.5,3.0,30.24,North,355,0.0,3.0,52,0.00,,,0.00,weatherlink.com 1.10,2013-01-25 18:27:00,
2013-01-25 13:42:00,18.2,2.0,30.24,WNW,299,4.0,7.0,50,0.00,,,0.00,weatherlink.com 1.10,2013-01-25 18:42:00,
2013-01-25 13:57:00,18.2,2.0,30.23,WNW,294,0.0,2.0,49,0.00,,,0.00,weatherlink.com 1.10,2013-01-25 18:57:00,
2013-01-25 14:12:00,18.0,2.0,30.23,NW,312,0.0,4.0,49,0.00,,,0.00,weatherlink.com 1.10,2013-01-25 19:12:00,
2013-01-25 14:27:00,18.6,1.0,30.21,NW,312,0.0,2.0,47,0.00,,,0.00,weatherlink.com 1.10,2013-01-25 19:27:00,
2013-01-25 14:42:00,18.7,1.0,30.20,South,187,0.0,7.0,47,0.00,,,0.00,weatherlink.com 1.10,2013-01-25 19:42:00,
2013-01-25 14:57:00,18.8,1.0,30.20,SW,232,3.0,5.0,46,0.00,,,0.00,weatherlink.com 1.10,2013-01-25 19:57:00,
2013-01-25 15:12:00,19.0,2.0,30.19,SSW,212,1.0,5.0,48,0.00,,,0.00,weatherlink.com 1.10,2013-01-25 20:12:00,
2013-01-25 15:27:00,18.9,2.0,30.18,West,269,2.0,5.0,47,0.00,,,0.00,weatherlink.com 1.10,2013-01-25 20:27:00,
2013-01-25 15:42:00,19.0,2.0,30.19,SSW,201,3.0,5.0,47,0.00,,,0.00,weatherlink.com 1.10,2013-01-25 20:42:00,
2013-01-25 15:57:00,19.0,1.0,30.18,SW,219,1.0,3.0,46,0.00,,,0.00,weatherlink.com 1.10,2013-01-25 20:57:00,
2013-01-25 16:13:00,18.9,2.0,30.18,SW,219,0.0,1.0,47,0.00,,,0.00,weatherlink.com 1.10,2013-01-25 21:13:00,
2013-01-25 16:28:00,18.7,1.0,30.18,SW,219,0.0,2.0,47,0.00,,,0.00,weatherlink.com 1.10,2013-01-25 21:28:00,
2013-01-25 16:43:00,18.7,2.0,30.18,SW,219,0.0,1.0,48,0.00,,,0.00,weatherlink.com 1.10,2013-01-25 21:43:00,
2013-01-25 16:58:00,18.7,3.0,30.16,SW,219,2.0,2.0,51,0.00,,,0.00,weatherlink.com 1.10,2013-01-25 21:58:00,
2013-01-25 17:13:00,18.6,3.0,30.15,SE,144,0.0,3.0,50,0.00,,,0.00,weatherlink.com 1.10,2013-01-25 22:13:00,
2013-01-25 17:28:00,18.6,3.0,30.14,SE,144,0.0,1.0,50,0.00,,,0.00,weatherlink.com 1.10,2013-01-25 22:28:00,
2013-01-25 17:43:00,18.5,3.0,30.14,SE,144,0.0,1.0,50,0.00,,,0.00,weatherlink.com 1.10,2013-01-25 22:43:00,
2013-01-25 17:58:00,18.6,3.0,30.14,SE,144,0.0,1.0,51,0.00,,,0.00,weatherlink.com 1.10,2013-01-25 22:58:00,
2013-01-25 18:13:00,18.7,4.0,30.14,SE,144,2.0,3.0,52,0.00,,,0.00,weatherlink.com 1.10,2013-01-25 23:13:00,
2013-01-25 18:28:00,18.7,7.0,30.14,WSW,237,7.0,10.0,61,0.00,,,0.00,weatherlink.com 1.10,2013-01-25 23:28:00,
2013-01-25 18:43:00,17.8,10.0,30.13,WSW,244,5.0,8.0,72,0.00,,,0.00,weatherlink.com 1.10,2013-01-25 23:43:00,
2013-01-25 18:58:00,17.2,11.0,30.12,WSW,252,2.0,4.0,78,0.00,,,0.00,weatherlink.com 1.10,2013-01-25 23:58:00,
2013-01-25 19:13:00,16.8,12.0,30.11,WSW,252,0.0,2.0,81,0.00,,,0.00,weatherlink.com 1.10,2013-01-26 00:13:00,
2013-01-25 19:28:00,16.7,13.0,30.11,WSW,252,0.0,2.0,84,0.00,,,0.00,weatherlink.com 1.10,2013-01-26 00:28:00,
2013-01-25 19:43:00,16.6,13.0,30.11,WSW,252,0.0,0.0,85,0.00,,,0.00,weatherlink.com 1.10,2013-01-26 00:43:00,
2013-01-25 19:58:00,16.5,13.0,30.10,WSW,252,0.0,0.0,86,0.00,,,0.00,weatherlink.com 1.10,2013-01-26 00:58:00,
2013-01-25 20:13:00,16.7,14.0,30.10,WSW,252,0.0,3.0,87,0.00,,,0.00,weatherlink.com 1.10,2013-01-26 01:13:00,
2013-01-25 20:28:00,16.5,14.0,30.09,WSW,252,0.0,0.0,88,0.00,,,0.00,weatherlink.com 1.10,2013-01-26 01:28:00,
2013-01-25 20:43:00,16.4,14.0,30.09,WSW,252,0.0,3.0,88,0.00,,,0.00,weatherlink.com 1.10,2013-01-26 01:43:00,
2013-01-25 20:58:00,16.4,14.0,30.08,WSW,252,1.0,2.0,89,0.00,,,0.00,weatherlink.com 1.10,2013-01-26 01:58:00,
2013-01-25 21:13:00,16.6,14.0,30.08,WSW,252,2.0,4.0,89,0.00,,,0.00,weatherlink.com 1.10,2013-01-26 02:13:00,
2013-01-25 21:28:00,16.6,14.0,30.08,WSW,252,0.0,4.0,89,0.00,,,0.00,weatherlink.com 1.10,2013-01-26 02:28:00,
2013-01-25 21:43:00,16.5,14.0,30.07,WSW,252,1.0,3.0,89,0.00,,,0.00,weatherlink.com 1.10,2013-01-26 02:43:00,
2013-01-25 21:58:00,16.3,14.0,30.07,WSW,252,0.0,3.0,89,0.00,,,0.00,weatherlink.com 1.10,2013-01-26 02:58:00,
2013-01-25 22:13:00,15.6,13.0,30.07,WSW,252,0.0,0.0,90,0.00,,,0.00,weatherlink.com 1.10,2013-01-26 03:13:00,
2013-01-25 22:28:00,14.6,12.0,30.07,WSW,252,0.0,0.0,90,0.00,,,0.00,weatherlink.com 1.10,2013-01-26 03:28:00,
2013-01-25 22:43:00,14.3,12.0,30.07,WSW,252,0.0,0.0,91,0.00,,,0.00,weatherlink.com 1.10,2013-01-26 03:43:00,
2013-01-25 22:58:00,14.7,13.0,30.07,WSW,252,0.0,1.0,91,0.00,,,0.00,weatherlink.com 1.10,2013-01-26 03:58:00,
2013-01-25 23:13:00,15.5,13.0,30.07,WSW,252,0.0,0.0,91,0.00,,,0.00,weatherlink.com 1.10,2013-01-26 04:13:00,
2013-01-25 23:28:00,15.2,13.0,30.06,WSW,252,0.0,2.0,91,0.00,,,0.00,weatherlink.com 1.10,2013-01-26 04:28:00,
2013-01-25 23:43:00,14.8,13.0,30.06,WSW,252,0.0,2.0,91,0.00,,,0.00,weatherlink.com 1.10,2013-01-26 04:43:00,
2013-01-25 23:58:00,14.1,12.0,30.06,WSW,252,0.0,1.0,90,0.00,,,0.00,weatherlink.com 1.10,2013-01-26 04:58:00,